Terminal Aerodrome Forecast
Issued by NWS Sterling, VA

Current Version | Previous Version | Graphics & Text | Print | Product List | Glossary On
Versions: 1 2 3 4 5 6 7 8 9 10 11 12 13 14 15
092
FTUS41 KLWX 221728
TAFMRB
TAF
KMRB 221728Z 2218/2318 31007KT P6SM SCT050 BKN150
     FM222000 25008KT P6SM VCTS SCT050CB BKN150
     FM230100 26005KT P6SM SCT250
     FM230600 26004KT P6SM SCT050
     FM230800 VRB03KT 5SM BR SCT040
     FM231200 28004KT P6SM SCT060=

USA.gov is the U.S. government's official web portal to all federal, state and local government web resources and services.